This is the latest recevied weather packets stored in our database for station/object W1SGB. If no packets are shown the sender has not sent any weather packets the latest 10 day(s).
| Time | Temp. | Humidity | Pressure | Rain* | Wind** | Luminosity | Snow |
|---|---|---|---|---|---|---|---|
| 1777656040 | 13.89° C | 50% | 1010 hPa | 0 mm | - | 607 W/m² | - |
| 1777651820 | 12.22° C | 53% | 1010.4 hPa | 0 mm | - | 448 W/m² | - |
| 1777648819 | 11.11° C | 60% | 1010.7 hPa | 0 mm | - | 295 W/m² | - |
| 1777647020 | 10.56° C | 61% | 1010.9 hPa | 0 mm | - | 272 W/m² | - |
| 1777645217 | 10.56° C | 62% | 1011 hPa | 0 mm | - | 149 W/m² | - |
| 1777641618 | 9.44° C | 66% | 1010.7 hPa | 0 mm | - | 184 W/m² | - |
| 1777639818 | 8.89° C | 72% | 1010.6 hPa | 0 mm | - | 98 W/m² | - |
| 1777637420 | 7.78° C | 76% | 1010.6 hPa | 0 mm | - | 118 W/m² | - |
| 1777635020 | 6.11° C | 89% | 1010.3 hPa | 0 mm | - | 52 W/m² | - |
| 1777630222 | 5° C | 90% | 1009.6 hPa | 0 mm | - | 11 W/m² | - |
| 1777626023 | 6.67° C | 84% | 1009 hPa | 0 mm | - | 0 W/m² | - |
| 1777624243 | 7.78° C | 81% | 1008.9 hPa | 0 mm | - | 0 W/m² | - |
| 1777620644 | 7.22° C | 87% | 1008.2 hPa | 0 mm | - | 0 W/m² | - |
| 1777619425 | 7.22° C | 89% | 1008.2 hPa | 0 mm | - | 0 W/m² | - |
| 1777618825 | 7.78° C | 89% | 1008 hPa | 0 mm | - | 0 W/m² | - |
| 1777613446 | 6.67° C | 94% | 1008 hPa | 0 mm | - | 0 W/m² | - |
| 1777606828 | 8.33° C | 91% | 1007.1 hPa | 0 mm | - | 0 W/m² | - |
| 1777604429 | 8.89° C | 95% | 1007.2 hPa | 0 mm | - | 0 W/m² | - |
| 1777596618 | 10.56° C | 92% | 1007 hPa | 0 mm | - | 0 W/m² | - |
| 1777595418 | 11.11° C | 90% | 1006.8 hPa | 0 mm | - | 0 W/m² | - |
| 1777590620 | 12.22° C | 85% | 1006.3 hPa | 0 mm | - | 5 W/m² | - |
| 1777583462 | 12.22° C | 83% | 1005.7 hPa | 0 mm | - | 59 W/m² | - |
| 1777582821 | 12.22° C | 84% | 1005.7 hPa | 0 mm | - | 69 W/m² | - |
| 1777579823 | 11.67° C | 85% | 1005.6 hPa | 0 mm | - | 94 W/m² | - |
| 1777579243 | 11.67° C | 86% | 1005.8 hPa | 0 mm | - | 94 W/m² | - |
* Rain latest hour (hover to see other rain measurements)
** Current wind speed in m/s (hover to see current wind gust speed)